createdAt,value
2022-09-23T00:00:04.820Z,77.19
2022-09-23T00:03:07.311Z,77.81
2022-09-23T00:06:12.280Z,78.03
2022-09-23T00:09:16.125Z,78.22
2022-09-23T00:12:19.006Z,77.83
2022-09-23T00:15:22.194Z,77.50
2022-09-23T00:18:24.679Z,76.97
2022-09-23T00:21:27.401Z,76.08
2022-09-23T00:24:32.326Z,77.51
2022-09-23T00:27:35.133Z,77.04
2022-09-23T00:30:37.613Z,78.40
2022-09-23T00:33:41.342Z,76.77
2022-09-23T00:36:44.447Z,77.17
2022-09-23T00:39:48.475Z,77.70
2022-09-23T00:42:51.985Z,77.24
2022-09-23T00:45:54.843Z,77.82
2022-09-23T00:49:01.070Z,77.47
2022-09-23T00:52:10.498Z,77.31
2022-09-23T00:55:18.553Z,78.36
2022-09-23T00:58:24.471Z,78.62
2022-09-23T01:01:27.145Z,78.04
2022-09-23T01:04:30.670Z,78.46
2022-09-23T01:07:33.179Z,77.87
2022-09-23T01:10:47.417Z,78.63
2022-09-23T01:14:00.378Z,78.71
2022-09-23T01:17:09.899Z,77.16
2022-09-23T01:20:49.485Z,76.27
2022-09-23T01:24:19.205Z,77.91
2022-09-23T01:27:41.981Z,77.68
2022-09-23T01:30:51.832Z,78.30
2022-09-23T01:34:02.099Z,78.08
2022-09-23T01:37:11.942Z,78.79
2022-09-23T01:40:21.287Z,78.61
2022-09-23T01:43:28.222Z,77.33
2022-09-23T01:46:36.549Z,78.21
2022-09-23T01:49:44.369Z,78.58
2022-09-23T01:52:48.347Z,79.09
2022-09-23T01:55:57.179Z,80.16
2022-09-23T01:59:06.555Z,78.37
2022-09-23T02:02:15.144Z,78.91
2022-09-23T02:05:23.365Z,79.87
2022-09-23T02:08:30.731Z,80.83
2022-09-23T02:11:36.936Z,80.09
2022-09-23T02:14:44.881Z,79.60
2022-09-23T02:17:52.839Z,79.07
2022-09-23T02:21:00.305Z,79.63
2022-09-23T02:24:09.938Z,80.33
2022-09-23T02:27:21.378Z,80.59
2022-09-23T02:30:29.246Z,80.27
2022-09-23T02:33:37.867Z,79.09
2022-09-23T02:36:46.986Z,79.65
2022-09-23T02:39:58.992Z,79.56
2022-09-23T02:43:07.211Z,80.23
2022-09-23T02:46:10.241Z,80.10
2022-09-23T02:49:19.922Z,79.95
2022-09-23T02:52:23.907Z,80.79
2022-09-23T02:55:30.260Z,80.28
2022-09-23T02:58:33.420Z,80.48
2022-09-23T03:01:46.621Z,80.43
2022-09-23T03:04:59.456Z,79.73
2022-09-23T03:08:18.883Z,80.72
2022-09-23T03:11:21.963Z,80.85
2022-09-23T03:14:35.656Z,81.50
2022-09-23T03:17:44.877Z,82.10
2022-09-23T03:20:53.196Z,81.50
2022-09-23T03:24:00.383Z,81.72
2022-09-23T03:27:06.029Z,82.38
2022-09-23T03:30:10.490Z,81.31
2022-09-23T03:33:16.642Z,81.13
2022-09-23T03:36:43.878Z,83.05
2022-09-23T03:39:52.565Z,82.20
2022-09-23T03:42:57.059Z,83.39
2022-09-23T03:46:01.323Z,81.68
2022-09-23T03:49:11.061Z,80.47
2022-09-23T03:52:15.078Z,81.28
2022-09-23T03:55:19.168Z,82.12
2022-09-23T03:58:21.650Z,82.08
2022-09-23T04:01:24.265Z,81.43
2022-09-23T04:04:27.721Z,82.63
2022-09-23T04:07:31.974Z,81.31
2022-09-23T04:10:34.444Z,83.18
2022-09-23T04:13:36.937Z,82.47
2022-09-23T04:16:39.521Z,83.42
2022-09-23T04:19:42.306Z,82.74
2022-09-23T04:22:46.146Z,83.43
2022-09-23T04:25:49.535Z,83.18
2022-09-23T04:28:52.043Z,83.50
2022-09-23T04:31:55.076Z,83.99
2022-09-23T04:34:57.621Z,83.62
2022-09-23T04:38:01.467Z,84.33
2022-09-23T04:41:03.945Z,85.28
2022-09-23T04:44:06.587Z,85.01
2022-09-23T04:47:09.127Z,85.75
2022-09-23T04:50:11.649Z,86.80
2022-09-23T04:53:17.002Z,86.90
2022-09-23T04:56:21.670Z,86.65
2022-09-23T04:59:24.304Z,86.04
2022-09-23T05:02:28.168Z,85.98
2022-09-23T05:05:31.853Z,86.33
2022-09-23T05:08:35.941Z,86.54
2022-09-23T05:11:38.432Z,86.41
2022-09-23T05:14:40.922Z,84.93
2022-09-23T05:17:43.782Z,85.16
2022-09-23T05:20:46.286Z,85.74
2022-09-23T05:23:52.314Z,86.28
2022-09-23T05:26:55.761Z,86.75
2022-09-23T05:29:58.470Z,86.54
2022-09-23T05:33:02.679Z,85.26
2022-09-23T05:36:05.971Z,83.83
2022-09-23T05:39:09.879Z,85.63
2022-09-23T05:42:12.518Z,84.17
2022-09-23T05:45:15.083Z,85.71
2022-09-23T05:48:17.570Z,85.73
2022-09-23T05:51:21.970Z,84.35
2022-09-23T05:54:25.872Z,83.32
2022-09-23T05:57:28.347Z,82.16
2022-09-23T06:00:30.820Z,84.35
2022-09-23T06:03:33.371Z,81.67
2022-09-23T06:06:38.243Z,82.47
2022-09-23T06:09:42.707Z,84.25
2022-09-23T06:12:45.184Z,81.57
2022-09-23T06:15:47.709Z,79.93
2022-09-23T06:18:50.322Z,82.40
2022-09-23T06:21:52.803Z,84.46
2022-09-23T06:24:56.628Z,82.92
2022-09-23T06:27:59.169Z,82.88
2022-09-23T06:31:03.915Z,82.32
2022-09-23T06:34:11.543Z,84.02
2022-09-23T06:37:20.095Z,80.80
2022-09-23T06:40:24.821Z,80.62
2022-09-23T06:43:27.772Z,80.94
2022-09-23T06:46:31.831Z,81.89
2022-09-23T06:49:34.660Z,82.71
2022-09-23T06:52:37.198Z,80.34
2022-09-23T06:55:41.247Z,81.17
2022-09-23T06:58:43.760Z,80.90
2022-09-23T07:01:47.576Z,81.36
2022-09-23T07:04:51.177Z,81.28
2022-09-23T07:07:54.563Z,80.25
2022-09-23T07:11:00.561Z,80.94
2022-09-23T07:14:03.124Z,81.27
2022-09-23T07:17:05.816Z,82.09
2022-09-23T07:20:08.993Z,78.61
2022-09-23T07:23:11.446Z,81.82
2022-09-23T07:26:16.606Z,83.22
2022-09-23T07:29:19.090Z,82.78
2022-09-23T07:32:23.616Z,82.34
2022-09-23T07:35:28.049Z,82.57
2022-09-23T07:38:31.355Z,81.87
2022-09-23T07:41:35.605Z,79.22
2022-09-23T07:44:38.102Z,78.57
2022-09-23T07:47:40.793Z,78.29
2022-09-23T07:50:43.281Z,76.32
2022-09-23T07:53:48.424Z,75.86
2022-09-23T07:56:52.269Z,76.25
2022-09-23T07:59:54.766Z,74.55
2022-09-23T08:02:57.298Z,75.31
2022-09-23T08:06:08.138Z,75.54
2022-09-23T08:09:11.089Z,76.65
2022-09-23T08:12:17.385Z,72.90
2022-09-23T08:15:19.923Z,71.89
2022-09-23T08:18:22.391Z,73.64
2022-09-23T08:21:24.877Z,73.15
2022-09-23T08:24:30.173Z,74.34
2022-09-23T08:27:33.986Z,73.27
2022-09-23T08:30:36.731Z,76.56
2022-09-23T08:33:39.934Z,70.84
2022-09-23T08:36:42.552Z,72.66
2022-09-23T08:39:45.040Z,68.84
2022-09-23T08:42:49.651Z,72.15
2022-09-23T08:45:53.513Z,69.41
2022-09-23T08:48:56.704Z,71.10
2022-09-23T08:52:03.068Z,69.97
2022-09-23T08:55:07.081Z,72.07
2022-09-23T08:58:28.676Z,67.83
2022-09-23T09:01:40.317Z,66.14
2022-09-23T09:04:45.410Z,67.49
2022-09-23T09:07:47.903Z,65.94
2022-09-23T09:10:54.400Z,68.93
2022-09-23T09:14:04.891Z,65.17
2022-09-23T09:17:10.734Z,64.24
2022-09-23T09:20:23.165Z,63.82
2022-09-23T09:23:33.446Z,61.59
2022-09-23T09:26:36.580Z,63.14
2022-09-23T09:29:43.996Z,61.82
2022-09-23T09:32:49.764Z,59.46
2022-09-23T09:36:07.589Z,62.47
2022-09-23T09:39:13.376Z,57.78
2022-09-23T09:42:21.154Z,57.68
2022-09-23T09:45:57.536Z,59.13
2022-09-23T09:49:06.119Z,59.64
2022-09-23T09:52:14.393Z,57.99
2022-09-23T09:55:26.196Z,55.39
2022-09-23T09:58:31.064Z,55.41
2022-09-23T10:01:36.154Z,51.55
2022-09-23T10:04:39.348Z,51.63
2022-09-23T10:07:41.902Z,54.32
2022-09-23T10:10:54.515Z,51.56
2022-09-23T10:14:12.274Z,50.64
2022-09-23T10:17:21.315Z,54.27
2022-09-23T10:20:23.849Z,55.62
2022-09-23T10:23:29.310Z,51.57
2022-09-23T10:26:34.492Z,52.43
2022-09-23T10:29:39.774Z,51.76
2022-09-23T10:32:46.384Z,51.67
2022-09-23T10:35:56.598Z,49.87
2022-09-23T10:39:15.531Z,47.60
2022-09-23T10:42:40.279Z,46.54
2022-09-23T10:46:06.653Z,45.94
2022-09-23T10:49:40.439Z,43.28
2022-09-23T10:52:55.233Z,43.61
2022-09-23T10:56:11.061Z,44.17
2022-09-23T10:59:34.122Z,43.93
2022-09-23T11:02:56.889Z,46.29
2022-09-23T11:06:13.092Z,45.35
2022-09-23T11:09:28.876Z,47.28
2022-09-23T11:12:41.615Z,47.24
2022-09-23T11:15:55.709Z,48.84
2022-09-23T11:19:15.130Z,49.36
2022-09-23T11:22:37.019Z,48.65
2022-09-23T11:25:50.544Z,47.64
2022-09-23T11:29:15.960Z,47.86
2022-09-23T11:32:39.527Z,46.80
2022-09-23T11:35:47.607Z,47.75
2022-09-23T11:38:53.175Z,48.06
2022-09-23T11:42:00.226Z,48.07
2022-09-23T11:45:09.558Z,49.09
2022-09-23T11:48:17.149Z,47.26
2022-09-23T11:51:25.648Z,48.70
2022-09-23T11:54:35.757Z,49.74
2022-09-23T11:57:49.042Z,47.63
2022-09-23T12:01:01.217Z,47.75
2022-09-23T12:04:19.200Z,51.57
2022-09-23T12:07:28.536Z,49.48
2022-09-23T12:10:41.943Z,49.09
2022-09-23T12:13:51.442Z,48.77
2022-09-23T12:17:21.321Z,48.09
2022-09-23T12:20:41.390Z,56.13
2022-09-23T12:23:59.211Z,47.39
2022-09-23T12:27:08.014Z,50.97
2022-09-23T12:30:17.515Z,53.03
2022-09-23T12:33:24.698Z,52.13
2022-09-23T12:36:33.756Z,52.13
2022-09-23T12:39:38.687Z,46.20
2022-09-23T12:42:46.219Z,47.67
2022-09-23T12:45:49.226Z,46.30
2022-09-23T12:49:04.308Z,47.65
2022-09-23T12:52:25.034Z,46.49
2022-09-23T12:55:51.517Z,49.26
2022-09-23T12:59:11.151Z,46.89
2022-09-23T13:02:28.262Z,46.82
2022-09-23T13:05:48.639Z,55.17
2022-09-23T13:08:51.321Z,48.84
2022-09-23T13:11:58.851Z,51.83
2022-09-23T13:15:06.468Z,51.46
2022-09-23T13:18:45.874Z,48.11
2022-09-23T13:22:08.825Z,49.15
2022-09-23T13:25:20.563Z,57.87
2022-09-23T13:28:33.597Z,50.06
2022-09-23T13:31:37.891Z,47.17
2022-09-23T13:34:44.147Z,49.47
2022-09-23T13:37:48.674Z,51.59
2022-09-23T13:40:51.286Z,50.53
2022-09-23T13:43:58.633Z,53.53
2022-09-23T13:47:03.183Z,50.79
2022-09-23T13:50:06.736Z,47.09
2022-09-23T13:53:12.370Z,51.94
2022-09-23T13:56:16.619Z,50.60
2022-09-23T13:59:25.840Z,47.69
2022-09-23T14:02:29.746Z,47.04
2022-09-23T14:05:36.261Z,49.94
2022-09-23T14:08:40.669Z,55.18
2022-09-23T14:11:43.181Z,52.95
2022-09-23T14:14:46.440Z,54.54
2022-09-23T14:17:54.127Z,50.11
2022-09-23T14:20:56.788Z,58.55
2022-09-23T14:24:13.089Z,60.50
2022-09-23T14:27:18.556Z,51.75
2022-09-23T14:30:21.074Z,55.31
2022-09-23T14:33:27.600Z,51.91
2022-09-23T14:36:54.364Z,52.72
2022-09-23T14:39:57.919Z,53.53
2022-09-23T14:43:04.462Z,50.87
2022-09-23T14:46:07.066Z,55.65
2022-09-23T14:49:17.297Z,52.91
2022-09-23T14:52:19.801Z,58.12
2022-09-23T14:55:22.753Z,56.74
2022-09-23T14:58:29.419Z,58.82
2022-09-23T15:01:38.597Z,63.52
2022-09-23T15:04:42.600Z,61.56
2022-09-23T15:07:49.523Z,54.25
2022-09-23T15:10:52.127Z,57.41
2022-09-23T15:13:54.630Z,60.22
2022-09-23T15:16:57.146Z,62.30
2022-09-23T15:20:04.388Z,55.39
2022-09-23T15:23:07.155Z,62.28
2022-09-23T15:26:13.526Z,55.58
2022-09-23T15:29:16.002Z,62.72
2022-09-23T15:32:19.546Z,61.29
2022-09-23T15:35:26.464Z,62.54
2022-09-23T15:38:28.999Z,58.59
2022-09-23T15:41:33.029Z,63.44
2022-09-23T15:44:36.245Z,65.05
2022-09-23T15:47:38.755Z,61.57
2022-09-23T15:50:45.440Z,66.21
2022-09-23T15:53:47.941Z,64.21
2022-09-23T15:56:50.464Z,66.46
2022-09-23T15:59:58.126Z,61.25
2022-09-23T16:03:01.024Z,68.82
2022-09-23T16:06:06.127Z,69.35
2022-09-23T16:09:08.944Z,68.83
2022-09-23T16:12:12.899Z,68.51
2022-09-23T16:15:18.956Z,69.19
2022-09-23T16:18:21.445Z,69.26
2022-09-23T16:21:27.300Z,71.03
2022-09-23T16:24:30.821Z,70.43
2022-09-23T16:27:33.993Z,70.90
2022-09-23T16:30:37.654Z,70.14
2022-09-23T16:33:40.139Z,68.69
2022-09-23T16:36:44.447Z,70.23
2022-09-23T16:39:49.345Z,70.53
2022-09-23T16:42:54.811Z,71.34
2022-09-23T16:45:57.706Z,74.28
2022-09-23T16:49:01.015Z,73.45
2022-09-23T16:52:05.359Z,73.67
2022-09-23T16:55:10.289Z,73.79
2022-09-23T16:58:12.815Z,73.66
2022-09-23T17:01:42.448Z,75.33
2022-09-23T17:04:45.155Z,74.78
2022-09-23T17:07:48.973Z,75.29
2022-09-23T17:10:58.541Z,76.44
2022-09-23T17:14:01.189Z,75.82
2022-09-23T17:17:03.701Z,76.52
2022-09-23T17:20:07.363Z,76.52
2022-09-23T17:23:11.237Z,77.93
2022-09-23T17:26:15.031Z,78.09
2022-09-23T17:29:17.517Z,79.05
2022-09-23T17:32:20.855Z,79.97
2022-09-23T17:35:23.370Z,80.00
2022-09-23T17:38:29.327Z,80.23
2022-09-23T17:41:32.111Z,80.18
2022-09-23T17:44:35.276Z,82.19
2022-09-23T17:47:41.413Z,82.34
2022-09-23T17:50:44.396Z,84.21
2022-09-23T17:53:49.665Z,84.70
2022-09-23T17:56:52.151Z,84.77
2022-09-23T17:59:55.986Z,84.91
2022-09-23T18:02:58.467Z,85.14
2022-09-23T18:06:09.699Z,85.17
2022-09-23T18:09:13.971Z,85.87
2022-09-23T18:12:16.821Z,86.27
2022-09-23T18:15:20.194Z,86.64
2022-09-23T18:18:22.785Z,87.00
2022-09-23T18:21:27.177Z,87.39
2022-09-23T18:24:33.395Z,87.09
2022-09-23T18:27:36.209Z,88.56
2022-09-23T18:30:40.068Z,88.43
2022-09-23T18:33:42.771Z,88.52
2022-09-23T18:36:46.008Z,89.26
2022-09-23T18:39:49.896Z,89.69
2022-09-23T18:42:52.365Z,90.15
2022-09-23T18:45:59.438Z,90.68
2022-09-23T18:49:19.516Z,90.39
2022-09-23T18:52:22.008Z,91.13
2022-09-23T18:55:26.067Z,90.59
2022-09-23T18:58:28.564Z,90.27
2022-09-23T19:01:31.271Z,90.01
2022-09-23T19:04:33.863Z,89.00
2022-09-23T19:07:36.355Z,86.59
2022-09-23T19:10:40.165Z,88.64
2022-09-23T19:13:42.964Z,88.52
2022-09-23T19:16:45.447Z,88.24
2022-09-23T19:19:47.907Z,87.75
2022-09-23T19:22:50.366Z,86.84
2022-09-23T19:25:54.545Z,85.67
2022-09-23T19:28:58.356Z,85.43
2022-09-23T19:32:00.929Z,85.56
2022-09-23T19:35:03.438Z,85.02
2022-09-23T19:38:06.762Z,84.83
2022-09-23T19:41:11.164Z,84.41
2022-09-23T19:44:14.042Z,84.64
2022-09-23T19:47:17.400Z,83.66
2022-09-23T19:50:21.669Z,84.60
2022-09-23T19:53:28.036Z,85.08
2022-09-23T19:56:33.073Z,84.84
2022-09-23T19:59:35.568Z,84.42
2022-09-23T20:02:38.058Z,84.76
2022-09-23T20:05:40.794Z,85.55
2022-09-23T20:08:44.070Z,85.24
2022-09-23T20:11:47.909Z,85.22
2022-09-23T20:14:51.634Z,84.75
2022-09-23T20:17:54.525Z,85.95
2022-09-23T20:20:56.997Z,86.55
2022-09-23T20:24:00.025Z,87.88
2022-09-23T20:27:09.530Z,88.26
2022-09-23T20:30:12.423Z,88.44
2022-09-23T20:33:15.135Z,87.95
2022-09-23T20:36:17.787Z,89.26
2022-09-23T20:39:20.266Z,90.58
2022-09-23T20:42:24.233Z,90.66
2022-09-23T20:45:26.737Z,91.06
2022-09-23T20:48:30.449Z,91.47
2022-09-23T20:51:33.782Z,91.54
2022-09-23T20:54:38.790Z,91.58
2022-09-23T20:57:44.232Z,91.01
2022-09-23T21:00:47.001Z,90.90
2022-09-23T21:03:52.390Z,91.21
2022-09-23T21:06:57.373Z,91.23
2022-09-23T21:10:01.805Z,91.21
2022-09-23T21:13:06.965Z,90.72
2022-09-23T21:16:12.033Z,90.68
2022-09-23T21:19:14.657Z,90.41
2022-09-23T21:22:17.753Z,90.76
2022-09-23T21:25:29.112Z,91.08
2022-09-23T21:28:35.430Z,91.10
2022-09-23T21:31:38.724Z,91.73
2022-09-23T21:34:41.285Z,92.00
2022-09-23T21:37:43.756Z,92.37
2022-09-23T21:40:58.499Z,93.07
2022-09-23T21:44:04.366Z,93.60
2022-09-23T21:47:07.088Z,93.06
2022-09-23T21:50:10.228Z,92.76
2022-09-23T21:53:12.717Z,92.79
2022-09-23T21:56:20.654Z,92.46
2022-09-23T21:59:24.995Z,92.95
2022-09-23T22:02:27.647Z,92.79
2022-09-23T22:05:30.174Z,93.75
2022-09-23T22:08:36.705Z,94.42
2022-09-23T22:11:58.347Z,93.92
2022-09-23T22:15:02.187Z,94.30
2022-09-23T22:18:06.392Z,94.26
2022-09-23T22:21:08.852Z,94.31
2022-09-23T22:24:12.880Z,94.78
2022-09-23T22:27:18.345Z,96.14
2022-09-23T22:30:39.710Z,96.47
2022-09-23T22:33:42.187Z,95.42
2022-09-23T22:36:44.674Z,96.35
2022-09-23T22:39:47.307Z,95.31
2022-09-23T22:42:49.825Z,95.23
2022-09-23T22:45:53.699Z,95.33
2022-09-23T22:48:56.181Z,94.76
2022-09-23T22:51:59.351Z,95.30
2022-09-23T22:55:01.872Z,95.30
2022-09-23T22:58:27.587Z,96.50
2022-09-23T23:01:29.990Z,96.15
2022-09-23T23:04:33.797Z,96.85
2022-09-23T23:07:36.480Z,96.35
2022-09-23T23:10:38.971Z,96.60
2022-09-23T23:13:42.394Z,96.31
2022-09-23T23:16:46.905Z,96.60
2022-09-23T23:19:50.503Z,96.48
2022-09-23T23:22:53.006Z,95.84
2022-09-23T23:25:55.475Z,95.93
2022-09-23T23:28:58.705Z,96.25
2022-09-23T23:32:02.957Z,96.57
2022-09-23T23:35:06.221Z,96.80
2022-09-23T23:38:12.434Z,97.11
2022-09-23T23:41:16.702Z,97.62
2022-09-23T23:44:19.192Z,97.57
2022-09-23T23:47:23.289Z,98.47
2022-09-23T23:50:26.394Z,98.47
2022-09-23T23:53:32.289Z,97.82
2022-09-23T23:56:34.799Z,98.05
2022-09-23T23:59:37.606Z,97.62
